sensor_id;sensor_type;location;lat;lon;timestamp;temperature;humidity
47521;DHT22;32291;52.010;4.446;2023-07-13T00:00:34;17.90;99.90
47521;DHT22;32291;52.010;4.446;2023-07-13T00:01:42;17.90;99.90
47521;DHT22;32291;52.010;4.446;2023-07-13T00:02:49;17.90;99.90
47521;DHT22;32291;52.010;4.446;2023-07-13T00:03:56;17.90;99.90
47521;DHT22;32291;52.010;4.446;2023-07-13T00:05:04;17.90;99.90
47521;DHT22;32291;52.010;4.446;2023-07-13T00:06:13;17.90;99.90
47521;DHT22;32291;52.010;4.446;2023-07-13T00:07:20;17.80;99.90
47521;DHT22;32291;52.010;4.446;2023-07-13T00:08:23;17.80;99.90
47521;DHT22;32291;52.010;4.446;2023-07-13T00:09:25;17.80;99.90
47521;DHT22;32291;52.010;4.446;2023-07-13T00:10:32;17.80;99.90
47521;DHT22;32291;52.010;4.446;2023-07-13T00:11:35;17.80;99.90
47521;DHT22;32291;52.010;4.446;2023-07-13T00:12:42;17.70;99.90
47521;DHT22;32291;52.010;4.446;2023-07-13T00:13:45;17.80;99.90
47521;DHT22;32291;52.010;4.446;2023-07-13T00:14:52;17.80;99.90
47521;DHT22;32291;52.010;4.446;2023-07-13T00:15:55;17.80;99.90
47521;DHT22;32291;52.010;4.446;2023-07-13T00:17:03;17.80;99.90
47521;DHT22;32291;52.010;4.446;2023-07-13T00:18:10;17.80;99.90
47521;DHT22;32291;52.010;4.446;2023-07-13T00:19:13;17.80;99.90
47521;DHT22;32291;52.010;4.446;2023-07-13T00:20:22;17.80;99.90
47521;DHT22;32291;52.010;4.446;2023-07-13T00:21:31;17.80;99.90
47521;DHT22;32291;52.010;4.446;2023-07-13T00:22:34;17.80;99.90
47521;DHT22;32291;52.010;4.446;2023-07-13T00:23:42;17.80;99.90
47521;DHT22;32291;52.010;4.446;2023-07-13T00:24:49;17.80;99.90
47521;DHT22;32291;52.010;4.446;2023-07-13T00:25:58;17.80;99.90
47521;DHT22;32291;52.010;4.446;2023-07-13T00:27:05;17.80;99.90
47521;DHT22;32291;52.010;4.446;2023-07-13T00:28:07;17.80;99.90
47521;DHT22;32291;52.010;4.446;2023-07-13T00:29:10;17.80;99.90
47521;DHT22;32291;52.010;4.446;2023-07-13T00:30:12;17.70;99.90
47521;DHT22;32291;52.010;4.446;2023-07-13T00:31:19;17.70;99.90
47521;DHT22;32291;52.010;4.446;2023-07-13T00:32:30;17.70;99.90
47521;DHT22;32291;52.010;4.446;2023-07-13T00:33:33;17.70;99.90
47521;DHT22;32291;52.010;4.446;2023-07-13T00:34:40;17.70;99.90
47521;DHT22;32291;52.010;4.446;2023-07-13T00:35:42;17.70;99.90
47521;DHT22;32291;52.010;4.446;2023-07-13T00:36:45;17.70;99.90
47521;DHT22;32291;52.010;4.446;2023-07-13T00:37:52;17.70;99.90
47521;DHT22;32291;52.010;4.446;2023-07-13T00:38:59;17.70;99.90
47521;DHT22;32291;52.010;4.446;2023-07-13T00:40:07;17.70;99.90
47521;DHT22;32291;52.010;4.446;2023-07-13T00:41:12;17.70;99.90
47521;DHT22;32291;52.010;4.446;2023-07-13T00:42:19;17.70;99.90
47521;DHT22;32291;52.010;4.446;2023-07-13T00:43:28;17.70;99.90
47521;DHT22;32291;52.010;4.446;2023-07-13T00:44:36;17.70;99.90
47521;DHT22;32291;52.010;4.446;2023-07-13T00:46:51;17.70;99.90
47521;DHT22;32291;52.010;4.446;2023-07-13T00:47:55;17.60;99.90
47521;DHT22;32291;52.010;4.446;2023-07-13T00:49:06;17.70;99.90
47521;DHT22;32291;52.010;4.446;2023-07-13T00:50:22;17.70;99.90
47521;DHT22;32291;52.010;4.446;2023-07-13T00:53:03;17.60;99.90
47521;DHT22;32291;52.010;4.446;2023-07-13T00:54:14;17.70;99.90
47521;DHT22;32291;52.010;4.446;2023-07-13T00:55:21;17.60;99.90
47521;DHT22;32291;52.010;4.446;2023-07-13T00:56:24;17.60;99.90
47521;DHT22;32291;52.010;4.446;2023-07-13T00:57:32;17.60;99.90
47521;DHT22;32291;52.010;4.446;2023-07-13T00:58:43;17.60;99.90
47521;DHT22;32291;52.010;4.446;2023-07-13T00:59:50;17.50;99.90
47521;DHT22;32291;52.010;4.446;2023-07-13T01:01:01;17.50;99.90
47521;DHT22;32291;52.010;4.446;2023-07-13T01:02:04;17.50;99.90
47521;DHT22;32291;52.010;4.446;2023-07-13T01:03:11;17.50;99.90
47521;DHT22;32291;52.010;4.446;2023-07-13T01:04:14;17.50;99.90
47521;DHT22;32291;52.010;4.446;2023-07-13T01:05:22;17.40;99.90
47521;DHT22;32291;52.010;4.446;2023-07-13T01:06:30;17.40;99.90
47521;DHT22;32291;52.010;4.446;2023-07-13T01:07:41;17.50;99.90
47521;DHT22;32291;52.010;4.446;2023-07-13T01:08:50;17.40;99.90
47521;DHT22;32291;52.010;4.446;2023-07-13T01:09:52;17.40;99.90
47521;DHT22;32291;52.010;4.446;2023-07-13T01:10:59;17.40;99.90
47521;DHT22;32291;52.010;4.446;2023-07-13T01:12:07;17.40;99.90
47521;DHT22;32291;52.010;4.446;2023-07-13T01:13:14;17.40;99.90
47521;DHT22;32291;52.010;4.446;2023-07-13T01:14:16;17.40;99.90
47521;DHT22;32291;52.010;4.446;2023-07-13T01:15:42;17.40;99.90
47521;DHT22;32291;52.010;4.446;2023-07-13T01:16:51;17.40;99.90
47521;DHT22;32291;52.010;4.446;2023-07-13T01:17:55;17.40;99.90
47521;DHT22;32291;52.010;4.446;2023-07-13T01:19:08;17.30;99.90
47521;DHT22;32291;52.010;4.446;2023-07-13T01:20:23;17.40;99.90
47521;DHT22;32291;52.010;4.446;2023-07-13T01:21:33;17.30;99.90
47521;DHT22;32291;52.010;4.446;2023-07-13T01:22:41;17.20;99.90
47521;DHT22;32291;52.010;4.446;2023-07-13T01:23:43;17.20;99.90
47521;DHT22;32291;52.010;4.446;2023-07-13T01:24:51;17.20;99.90
47521;DHT22;32291;52.010;4.446;2023-07-13T01:25:58;17.20;99.90
47521;DHT22;32291;52.010;4.446;2023-07-13T01:27:02;17.20;99.90
47521;DHT22;32291;52.010;4.446;2023-07-13T01:28:06;17.20;99.90
47521;DHT22;32291;52.010;4.446;2023-07-13T01:29:13;17.10;99.90
47521;DHT22;32291;52.010;4.446;2023-07-13T01:30:20;17.00;99.90
47521;DHT22;32291;52.010;4.446;2023-07-13T01:31:22;17.10;99.90
47521;DHT22;32291;52.010;4.446;2023-07-13T01:32:29;17.00;99.90
47521;DHT22;32291;52.010;4.446;2023-07-13T01:33:38;17.10;99.90
47521;DHT22;32291;52.010;4.446;2023-07-13T01:34:42;17.00;99.90
47521;DHT22;32291;52.010;4.446;2023-07-13T01:35:46;17.00;99.90
47521;DHT22;32291;52.010;4.446;2023-07-13T01:36:49;16.90;99.90
47521;DHT22;32291;52.010;4.446;2023-07-13T01:37:55;16.90;99.90
47521;DHT22;32291;52.010;4.446;2023-07-13T01:39:06;16.90;99.90
47521;DHT22;32291;52.010;4.446;2023-07-13T01:40:13;16.90;99.90
47521;DHT22;32291;52.010;4.446;2023-07-13T01:41:20;16.90;99.90
47521;DHT22;32291;52.010;4.446;2023-07-13T01:42:22;16.80;99.90
47521;DHT22;32291;52.010;4.446;2023-07-13T01:43:29;16.80;99.90
47521;DHT22;32291;52.010;4.446;2023-07-13T01:44:36;16.90;99.90
47521;DHT22;32291;52.010;4.446;2023-07-13T01:45:44;16.80;99.90
47521;DHT22;32291;52.010;4.446;2023-07-13T01:46:51;16.80;99.90
47521;DHT22;32291;52.010;4.446;2023-07-13T01:47:58;16.70;99.90
47521;DHT22;32291;52.010;4.446;2023-07-13T01:49:05;16.70;99.90
47521;DHT22;32291;52.010;4.446;2023-07-13T01:50:08;16.70;99.90
47521;DHT22;32291;52.010;4.446;2023-07-13T01:51:16;16.70;99.90
47521;DHT22;32291;52.010;4.446;2023-07-13T01:52:24;16.60;99.90
47521;DHT22;32291;52.010;4.446;2023-07-13T01:53:31;16.70;99.90
47521;DHT22;32291;52.010;4.446;2023-07-13T01:54:33;16.60;99.90
47521;DHT22;32291;52.010;4.446;2023-07-13T01:55:41;16.60;99.90
47521;DHT22;32291;52.010;4.446;2023-07-13T01:56:49;16.60;99.90
47521;DHT22;32291;52.010;4.446;2023-07-13T01:57:51;16.60;99.90
47521;DHT22;32291;52.010;4.446;2023-07-13T01:58:58;16.60;99.90
47521;DHT22;32291;52.010;4.446;2023-07-13T02:00:06;16.50;99.90
47521;DHT22;32291;52.010;4.446;2023-07-13T02:01:11;16.40;99.90
47521;DHT22;32291;52.010;4.446;2023-07-13T02:02:13;16.40;99.90
47521;DHT22;32291;52.010;4.446;2023-07-13T02:03:15;16.40;99.90
47521;DHT22;32291;52.010;4.446;2023-07-13T02:04:24;16.40;99.90
47521;DHT22;32291;52.010;4.446;2023-07-13T02:05:31;16.40;99.90
47521;DHT22;32291;52.010;4.446;2023-07-13T02:06:33;16.30;99.90
47521;DHT22;32291;52.010;4.446;2023-07-13T02:07:36;16.30;99.90
47521;DHT22;32291;52.010;4.446;2023-07-13T02:08:43;16.30;99.90
47521;DHT22;32291;52.010;4.446;2023-07-13T02:09:49;16.40;99.90
47521;DHT22;32291;52.010;4.446;2023-07-13T02:10:56;16.40;99.90
47521;DHT22;32291;52.010;4.446;2023-07-13T02:11:59;16.40;99.90
47521;DHT22;32291;52.010;4.446;2023-07-13T02:13:07;16.30;99.90
47521;DHT22;32291;52.010;4.446;2023-07-13T02:14:09;16.40;99.90
47521;DHT22;32291;52.010;4.446;2023-07-13T02:15:12;16.30;99.90
47521;DHT22;32291;52.010;4.446;2023-07-13T02:16:14;16.40;99.90
47521;DHT22;32291;52.010;4.446;2023-07-13T02:17:21;16.40;99.90
47521;DHT22;32291;52.010;4.446;2023-07-13T02:18:28;16.40;99.90
47521;DHT22;32291;52.010;4.446;2023-07-13T02:19:35;16.30;99.90
47521;DHT22;32291;52.010;4.446;2023-07-13T02:20:43;16.30;99.90
47521;DHT22;32291;52.010;4.446;2023-07-13T02:21:50;16.30;99.90
47521;DHT22;32291;52.010;4.446;2023-07-13T02:22:53;16.30;99.90
47521;DHT22;32291;52.010;4.446;2023-07-13T02:24:00;16.30;99.90
47521;DHT22;32291;52.010;4.446;2023-07-13T02:25:03;16.30;99.90
47521;DHT22;32291;52.010;4.446;2023-07-13T02:26:05;16.30;99.90
47521;DHT22;32291;52.010;4.446;2023-07-13T02:27:12;16.30;99.90
47521;DHT22;32291;52.010;4.446;2023-07-13T02:28:15;16.30;99.90
47521;DHT22;32291;52.010;4.446;2023-07-13T02:29:17;16.30;99.90
47521;DHT22;32291;52.010;4.446;2023-07-13T02:30:24;16.30;99.90
47521;DHT22;32291;52.010;4.446;2023-07-13T02:31:26;16.30;99.90
47521;DHT22;32291;52.010;4.446;2023-07-13T02:32:28;16.30;99.90
47521;DHT22;32291;52.010;4.446;2023-07-13T02:33:30;16.20;99.90
47521;DHT22;32291;52.010;4.446;2023-07-13T02:34:38;16.20;99.90
47521;DHT22;32291;52.010;4.446;2023-07-13T02:35:45;16.20;99.90
47521;DHT22;32291;52.010;4.446;2023-07-13T02:36:47;16.20;99.90
47521;DHT22;32291;52.010;4.446;2023-07-13T02:37:54;16.20;99.90
47521;DHT22;32291;52.010;4.446;2023-07-13T02:39:05;16.20;99.90
47521;DHT22;32291;52.010;4.446;2023-07-13T02:40:08;16.30;99.90
47521;DHT22;32291;52.010;4.446;2023-07-13T02:41:16;16.20;99.90
47521;DHT22;32291;52.010;4.446;2023-07-13T02:42:23;16.20;99.90
47521;DHT22;32291;52.010;4.446;2023-07-13T02:43:30;16.20;99.90
47521;DHT22;32291;52.010;4.446;2023-07-13T02:44:32;16.20;99.90
47521;DHT22;32291;52.010;4.446;2023-07-13T02:45:43;16.30;99.90
47521;DHT22;32291;52.010;4.446;2023-07-13T02:46:46;16.30;99.90
47521;DHT22;32291;52.010;4.446;2023-07-13T02:47:49;16.30;99.90
47521;DHT22;32291;52.010;4.446;2023-07-13T02:48:56;16.20;99.90
47521;DHT22;32291;52.010;4.446;2023-07-13T02:49:58;16.30;99.90
47521;DHT22;32291;52.010;4.446;2023-07-13T02:51:05;16.20;99.90
47521;DHT22;32291;52.010;4.446;2023-07-13T02:52:09;16.20;99.90
47521;DHT22;32291;52.010;4.446;2023-07-13T02:53:16;16.20;99.90
47521;DHT22;32291;52.010;4.446;2023-07-13T02:54:18;16.20;99.90
47521;DHT22;32291;52.010;4.446;2023-07-13T02:55:25;16.20;99.90
47521;DHT22;32291;52.010;4.446;2023-07-13T02:56:29;16.20;99.90
47521;DHT22;32291;52.010;4.446;2023-07-13T02:57:32;16.20;99.90
47521;DHT22;32291;52.010;4.446;2023-07-13T02:58:34;16.20;99.90
47521;DHT22;32291;52.010;4.446;2023-07-13T02:59:43;16.20;99.90
47521;DHT22;32291;52.010;4.446;2023-07-13T03:00:46;16.20;99.90
47521;DHT22;32291;52.010;4.446;2023-07-13T03:01:49;16.20;99.90
47521;DHT22;32291;52.010;4.446;2023-07-13T03:02:51;16.20;99.90
47521;DHT22;32291;52.010;4.446;2023-07-13T03:03:59;16.20;99.90
47521;DHT22;32291;52.010;4.446;2023-07-13T03:05:02;16.20;99.90
47521;DHT22;32291;52.010;4.446;2023-07-13T03:06:05;16.20;99.90
47521;DHT22;32291;52.010;4.446;2023-07-13T03:07:14;16.20;99.90
47521;DHT22;32291;52.010;4.446;2023-07-13T03:08:22;16.20;99.90
47521;DHT22;32291;52.010;4.446;2023-07-13T03:09:25;16.20;99.90
47521;DHT22;32291;52.010;4.446;2023-07-13T03:10:27;16.20;99.90
47521;DHT22;32291;52.010;4.446;2023-07-13T03:11:30;16.20;99.90
47521;DHT22;32291;52.010;4.446;2023-07-13T03:12:32;16.20;99.90
47521;DHT22;32291;52.010;4.446;2023-07-13T03:13:41;16.20;99.90
47521;DHT22;32291;52.010;4.446;2023-07-13T03:14:44;16.20;99.90
47521;DHT22;32291;52.010;4.446;2023-07-13T03:15:50;16.20;99.90
47521;DHT22;32291;52.010;4.446;2023-07-13T03:16:57;16.30;99.90
47521;DHT22;32291;52.010;4.446;2023-07-13T03:18:00;16.30;99.90
47521;DHT22;32291;52.010;4.446;2023-07-13T03:19:07;16.20;99.90
47521;DHT22;32291;52.010;4.446;2023-07-13T03:20:14;16.20;99.90
47521;DHT22;32291;52.010;4.446;2023-07-13T03:21:21;16.20;99.90
47521;DHT22;32291;52.010;4.446;2023-07-13T03:22:23;16.20;99.90
47521;DHT22;32291;52.010;4.446;2023-07-13T03:23:30;16.20;99.90
47521;DHT22;32291;52.010;4.446;2023-07-13T03:24:38;16.20;99.90
47521;DHT22;32291;52.010;4.446;2023-07-13T03:25:45;16.20;99.90
47521;DHT22;32291;52.010;4.446;2023-07-13T03:26:52;16.20;99.90
47521;DHT22;32291;52.010;4.446;2023-07-13T03:27:54;16.20;99.90
47521;DHT22;32291;52.010;4.446;2023-07-13T03:29:01;16.30;99.90
47521;DHT22;32291;52.010;4.446;2023-07-13T03:30:09;16.20;99.90
47521;DHT22;32291;52.010;4.446;2023-07-13T03:31:21;16.20;99.90
47521;DHT22;32291;52.010;4.446;2023-07-13T03:32:33;16.20;99.90
47521;DHT22;32291;52.010;4.446;2023-07-13T03:33:40;16.30;99.90
47521;DHT22;32291;52.010;4.446;2023-07-13T03:34:44;16.30;99.90
47521;DHT22;32291;52.010;4.446;2023-07-13T03:35:51;16.30;99.90
47521;DHT22;32291;52.010;4.446;2023-07-13T03:36:55;16.30;99.90
47521;DHT22;32291;52.010;4.446;2023-07-13T03:37:57;16.20;99.90
47521;DHT22;32291;52.010;4.446;2023-07-13T03:39:01;16.30;99.90
47521;DHT22;32291;52.010;4.446;2023-07-13T03:40:10;16.20;99.90
47521;DHT22;32291;52.010;4.446;2023-07-13T03:41:16;16.20;99.90
47521;DHT22;32291;52.010;4.446;2023-07-13T03:42:24;16.20;99.90
47521;DHT22;32291;52.010;4.446;2023-07-13T03:43:31;16.20;99.90
47521;DHT22;32291;52.010;4.446;2023-07-13T03:44:33;16.30;99.90
47521;DHT22;32291;52.010;4.446;2023-07-13T03:45:40;16.20;99.90
47521;DHT22;32291;52.010;4.446;2023-07-13T03:46:43;16.30;99.90
47521;DHT22;32291;52.010;4.446;2023-07-13T03:47:46;16.30;99.90
47521;DHT22;32291;52.010;4.446;2023-07-13T03:48:53;16.20;99.90
47521;DHT22;32291;52.010;4.446;2023-07-13T03:50:00;16.30;99.90
47521;DHT22;32291;52.010;4.446;2023-07-13T03:51:07;16.30;99.90
47521;DHT22;32291;52.010;4.446;2023-07-13T03:52:14;16.30;99.90
47521;DHT22;32291;52.010;4.446;2023-07-13T03:53:21;16.30;99.90
47521;DHT22;32291;52.010;4.446;2023-07-13T03:54:29;16.30;99.90
47521;DHT22;32291;52.010;4.446;2023-07-13T03:55:31;16.30;99.90
47521;DHT22;32291;52.010;4.446;2023-07-13T03:56:33;16.30;99.90
47521;DHT22;32291;52.010;4.446;2023-07-13T03:57:40;16.30;99.90
47521;DHT22;32291;52.010;4.446;2023-07-13T03:58:48;16.30;99.90
47521;DHT22;32291;52.010;4.446;2023-07-13T03:59:56;16.30;99.90
47521;DHT22;32291;52.010;4.446;2023-07-13T04:01:04;16.30;99.90
47521;DHT22;32291;52.010;4.446;2023-07-13T04:02:13;16.30;99.90
47521;DHT22;32291;52.010;4.446;2023-07-13T04:03:20;16.30;99.90
47521;DHT22;32291;52.010;4.446;2023-07-13T04:04:23;16.40;99.90
47521;DHT22;32291;52.010;4.446;2023-07-13T04:05:28;16.30;99.90
47521;DHT22;32291;52.010;4.446;2023-07-13T04:06:35;16.40;99.90
47521;DHT22;32291;52.010;4.446;2023-07-13T04:07:42;16.30;99.90
47521;DHT22;32291;52.010;4.446;2023-07-13T04:08:52;16.30;99.90
47521;DHT22;32291;52.010;4.446;2023-07-13T04:10:01;16.40;99.90
47521;DHT22;32291;52.010;4.446;2023-07-13T04:11:04;16.40;99.90
47521;DHT22;32291;52.010;4.446;2023-07-13T04:12:11;16.40;99.90
47521;DHT22;32291;52.010;4.446;2023-07-13T04:13:19;16.50;99.90
47521;DHT22;32291;52.010;4.446;2023-07-13T04:14:26;16.50;99.90
47521;DHT22;32291;52.010;4.446;2023-07-13T04:15:30;16.50;99.90
47521;DHT22;32291;52.010;4.446;2023-07-13T04:16:34;16.50;99.90
47521;DHT22;32291;52.010;4.446;2023-07-13T04:17:41;16.50;99.90
47521;DHT22;32291;52.010;4.446;2023-07-13T04:18:48;16.50;99.90
47521;DHT22;32291;52.010;4.446;2023-07-13T04:19:56;16.60;99.90
47521;DHT22;32291;52.010;4.446;2023-07-13T04:21:03;16.60;99.90
47521;DHT22;32291;52.010;4.446;2023-07-13T04:22:06;16.60;99.90
47521;DHT22;32291;52.010;4.446;2023-07-13T04:23:13;16.60;99.90
47521;DHT22;32291;52.010;4.446;2023-07-13T04:24:20;16.60;99.90
47521;DHT22;32291;52.010;4.446;2023-07-13T04:25:23;16.60;99.90
47521;DHT22;32291;52.010;4.446;2023-07-13T04:26:30;16.70;99.90
47521;DHT22;32291;52.010;4.446;2023-07-13T04:27:37;16.70;99.90
47521;DHT22;32291;52.010;4.446;2023-07-13T04:28:41;16.70;99.90
47521;DHT22;32291;52.010;4.446;2023-07-13T04:29:44;16.70;99.90
47521;DHT22;32291;52.010;4.446;2023-07-13T04:30:52;16.80;99.90
47521;DHT22;32291;52.010;4.446;2023-07-13T04:32:00;16.80;99.90
47521;DHT22;32291;52.010;4.446;2023-07-13T04:33:07;16.80;99.90
47521;DHT22;32291;52.010;4.446;2023-07-13T04:34:10;16.80;99.90
47521;DHT22;32291;52.010;4.446;2023-07-13T04:35:20;16.90;99.90
47521;DHT22;32291;52.010;4.446;2023-07-13T04:36:23;16.90;99.90
47521;DHT22;32291;52.010;4.446;2023-07-13T04:37:33;16.90;99.90
47521;DHT22;32291;52.010;4.446;2023-07-13T04:38:42;16.90;99.90
47521;DHT22;32291;52.010;4.446;2023-07-13T04:39:44;16.90;99.90
47521;DHT22;32291;52.010;4.446;2023-07-13T04:40:47;17.00;99.90
47521;DHT22;32291;52.010;4.446;2023-07-13T04:41:55;17.00;99.90
47521;DHT22;32291;52.010;4.446;2023-07-13T04:43:02;17.00;99.90
47521;DHT22;32291;52.010;4.446;2023-07-13T04:44:09;17.00;99.90
47521;DHT22;32291;52.010;4.446;2023-07-13T04:45:16;17.00;99.90
47521;DHT22;32291;52.010;4.446;2023-07-13T04:46:19;17.00;99.90
47521;DHT22;32291;52.010;4.446;2023-07-13T04:47:26;17.00;99.90
47521;DHT22;32291;52.010;4.446;2023-07-13T04:48:36;17.10;99.90
47521;DHT22;32291;52.010;4.446;2023-07-13T04:49:44;17.10;99.90
47521;DHT22;32291;52.010;4.446;2023-07-13T04:50:47;17.20;99.90
47521;DHT22;32291;52.010;4.446;2023-07-13T04:51:54;17.20;99.90
47521;DHT22;32291;52.010;4.446;2023-07-13T04:53:01;17.30;99.90
47521;DHT22;32291;52.010;4.446;2023-07-13T04:54:09;17.30;99.90
47521;DHT22;32291;52.010;4.446;2023-07-13T04:55:17;17.30;99.90
47521;DHT22;32291;52.010;4.446;2023-07-13T04:56:25;17.40;99.90
47521;DHT22;32291;52.010;4.446;2023-07-13T04:57:32;17.50;99.90
47521;DHT22;32291;52.010;4.446;2023-07-13T04:58:40;17.50;99.90
47521;DHT22;32291;52.010;4.446;2023-07-13T04:59:42;17.50;99.90
47521;DHT22;32291;52.010;4.446;2023-07-13T05:00:44;17.60;99.90
47521;DHT22;32291;52.010;4.446;2023-07-13T05:01:51;17.60;99.90
47521;DHT22;32291;52.010;4.446;2023-07-13T05:03:02;17.60;99.90
47521;DHT22;32291;52.010;4.446;2023-07-13T05:04:10;17.60;99.90
47521;DHT22;32291;52.010;4.446;2023-07-13T05:05:17;17.60;99.90
47521;DHT22;32291;52.010;4.446;2023-07-13T05:06:20;17.60;99.90
47521;DHT22;32291;52.010;4.446;2023-07-13T05:07:23;17.60;99.90
47521;DHT22;32291;52.010;4.446;2023-07-13T05:08:30;17.60;99.90
47521;DHT22;32291;52.010;4.446;2023-07-13T05:09:32;17.60;99.90
47521;DHT22;32291;52.010;4.446;2023-07-13T05:10:35;17.70;99.90
47521;DHT22;32291;52.010;4.446;2023-07-13T05:11:37;17.70;99.90
47521;DHT22;32291;52.010;4.446;2023-07-13T05:12:40;17.70;99.90
47521;DHT22;32291;52.010;4.446;2023-07-13T05:13:42;17.70;99.90
47521;DHT22;32291;52.010;4.446;2023-07-13T05:14:47;17.70;99.90
47521;DHT22;32291;52.010;4.446;2023-07-13T05:15:58;17.70;99.90
47521;DHT22;32291;52.010;4.446;2023-07-13T05:17:04;17.70;99.90
47521;DHT22;32291;52.010;4.446;2023-07-13T05:18:09;17.70;99.90
47521;DHT22;32291;52.010;4.446;2023-07-13T05:19:12;17.70;99.90
47521;DHT22;32291;52.010;4.446;2023-07-13T05:20:19;17.70;99.90
47521;DHT22;32291;52.010;4.446;2023-07-13T05:21:25;17.70;99.90
47521;DHT22;32291;52.010;4.446;2023-07-13T05:22:35;17.70;99.90
47521;DHT22;32291;52.010;4.446;2023-07-13T05:23:42;17.70;99.90
47521;DHT22;32291;52.010;4.446;2023-07-13T05:24:44;17.70;99.90
47521;DHT22;32291;52.010;4.446;2023-07-13T05:25:51;17.70;99.90
47521;DHT22;32291;52.010;4.446;2023-07-13T05:26:54;17.70;99.90
47521;DHT22;32291;52.010;4.446;2023-07-13T05:28:01;17.80;99.90
47521;DHT22;32291;52.010;4.446;2023-07-13T05:29:04;17.80;99.90
47521;DHT22;32291;52.010;4.446;2023-07-13T05:30:11;17.80;99.90
47521;DHT22;32291;52.010;4.446;2023-07-13T05:31:21;17.90;99.90
47521;DHT22;32291;52.010;4.446;2023-07-13T05:32:24;17.90;99.90
47521;DHT22;32291;52.010;4.446;2023-07-13T05:33:26;18.00;99.90
47521;DHT22;32291;52.010;4.446;2023-07-13T05:34:33;18.00;99.90
47521;DHT22;32291;52.010;4.446;2023-07-13T05:37:40;18.20;99.90
47521;DHT22;32291;52.010;4.446;2023-07-13T05:38:43;18.20;99.90
47521;DHT22;32291;52.010;4.446;2023-07-13T05:39:45;18.30;99.90
47521;DHT22;32291;52.010;4.446;2023-07-13T05:40:47;18.30;99.90
47521;DHT22;32291;52.010;4.446;2023-07-13T05:41:49;18.30;99.90
47521;DHT22;32291;52.010;4.446;2023-07-13T05:42:56;18.40;99.90
47521;DHT22;32291;52.010;4.446;2023-07-13T05:43:59;18.40;99.90
47521;DHT22;32291;52.010;4.446;2023-07-13T05:45:02;18.50;99.90
47521;DHT22;32291;52.010;4.446;2023-07-13T05:46:04;18.50;99.90
47521;DHT22;32291;52.010;4.446;2023-07-13T05:47:11;18.50;99.90
47521;DHT22;32291;52.010;4.446;2023-07-13T05:48:16;18.50;99.90
47521;DHT22;32291;52.010;4.446;2023-07-13T05:49:21;18.60;99.90
47521;DHT22;32291;52.010;4.446;2023-07-13T05:50:26;18.60;99.90
47521;DHT22;32291;52.010;4.446;2023-07-13T05:51:29;18.60;99.90
47521;DHT22;32291;52.010;4.446;2023-07-13T05:52:36;18.60;99.90
47521;DHT22;32291;52.010;4.446;2023-07-13T05:53:39;18.60;99.90
47521;DHT22;32291;52.010;4.446;2023-07-13T05:54:46;18.50;99.90
47521;DHT22;32291;52.010;4.446;2023-07-13T05:55:54;18.60;99.90
47521;DHT22;32291;52.010;4.446;2023-07-13T05:57:05;18.50;99.90
47521;DHT22;32291;52.010;4.446;2023-07-13T05:58:07;18.50;99.90
47521;DHT22;32291;52.010;4.446;2023-07-13T05:59:12;18.50;99.90
47521;DHT22;32291;52.010;4.446;2023-07-13T06:00:19;18.50;99.90
47521;DHT22;32291;52.010;4.446;2023-07-13T06:01:22;18.40;99.90
47521;DHT22;32291;52.010;4.446;2023-07-13T06:02:30;18.40;99.90
47521;DHT22;32291;52.010;4.446;2023-07-13T06:03:37;18.40;99.90
47521;DHT22;32291;52.010;4.446;2023-07-13T06:04:47;18.30;99.90
47521;DHT22;32291;52.010;4.446;2023-07-13T06:05:54;18.40;99.90
47521;DHT22;32291;52.010;4.446;2023-07-13T06:07:01;18.30;99.90
47521;DHT22;32291;52.010;4.446;2023-07-13T06:08:08;18.30;99.90
47521;DHT22;32291;52.010;4.446;2023-07-13T06:09:15;18.30;99.90
47521;DHT22;32291;52.010;4.446;2023-07-13T06:10:17;18.30;99.90
47521;DHT22;32291;52.010;4.446;2023-07-13T06:11:26;18.30;99.90
47521;DHT22;32291;52.010;4.446;2023-07-13T06:12:36;18.30;99.90
47521;DHT22;32291;52.010;4.446;2023-07-13T06:13:39;18.30;99.90
47521;DHT22;32291;52.010;4.446;2023-07-13T06:14:41;18.30;99.90
47521;DHT22;32291;52.010;4.446;2023-07-13T06:15:49;18.30;99.90
47521;DHT22;32291;52.010;4.446;2023-07-13T06:16:52;18.40;99.90
47521;DHT22;32291;52.010;4.446;2023-07-13T06:17:54;18.40;99.90
47521;DHT22;32291;52.010;4.446;2023-07-13T06:19:02;18.40;99.90
47521;DHT22;32291;52.010;4.446;2023-07-13T06:20:05;18.40;99.90
47521;DHT22;32291;52.010;4.446;2023-07-13T06:21:10;18.50;99.90
47521;DHT22;32291;52.010;4.446;2023-07-13T06:22:21;18.50;99.90
47521;DHT22;32291;52.010;4.446;2023-07-13T06:23:24;18.60;99.90
47521;DHT22;32291;52.010;4.446;2023-07-13T06:24:32;18.60;99.90
47521;DHT22;32291;52.010;4.446;2023-07-13T06:25:34;18.50;99.90
47521;DHT22;32291;52.010;4.446;2023-07-13T06:26:37;18.60;99.90
47521;DHT22;32291;52.010;4.446;2023-07-13T06:27:42;18.60;99.90
47521;DHT22;32291;52.010;4.446;2023-07-13T06:28:50;18.70;99.90
47521;DHT22;32291;52.010;4.446;2023-07-13T06:29:52;18.70;99.90
47521;DHT22;32291;52.010;4.446;2023-07-13T06:31:04;18.70;99.90
47521;DHT22;32291;52.010;4.446;2023-07-13T06:32:08;18.70;99.90
47521;DHT22;32291;52.010;4.446;2023-07-13T06:33:13;18.80;99.90
47521;DHT22;32291;52.010;4.446;2023-07-13T06:34:15;18.80;99.90
47521;DHT22;32291;52.010;4.446;2023-07-13T06:35:18;18.80;99.90
47521;DHT22;32291;52.010;4.446;2023-07-13T06:36:26;18.90;99.90
47521;DHT22;32291;52.010;4.446;2023-07-13T06:37:30;18.90;99.90
47521;DHT22;32291;52.010;4.446;2023-07-13T06:38:37;18.90;99.90
47521;DHT22;32291;52.010;4.446;2023-07-13T06:39:47;19.00;99.90
47521;DHT22;32291;52.010;4.446;2023-07-13T06:40:54;19.10;99.90
47521;DHT22;32291;52.010;4.446;2023-07-13T06:41:56;19.20;99.90
47521;DHT22;32291;52.010;4.446;2023-07-13T06:42:59;19.30;99.90
47521;DHT22;32291;52.010;4.446;2023-07-13T06:44:01;19.40;99.90
47521;DHT22;32291;52.010;4.446;2023-07-13T06:45:04;19.50;99.90
47521;DHT22;32291;52.010;4.446;2023-07-13T06:46:07;19.50;99.90
47521;DHT22;32291;52.010;4.446;2023-07-13T06:47:14;19.60;99.90
47521;DHT22;32291;52.010;4.446;2023-07-13T06:48:21;19.70;99.90
47521;DHT22;32291;52.010;4.446;2023-07-13T06:49:24;19.80;99.90
47521;DHT22;32291;52.010;4.446;2023-07-13T06:50:26;19.80;99.90
47521;DHT22;32291;52.010;4.446;2023-07-13T06:51:29;19.80;99.90
47521;DHT22;32291;52.010;4.446;2023-07-13T06:52:36;19.90;99.90
47521;DHT22;32291;52.010;4.446;2023-07-13T06:53:42;20.00;99.90
47521;DHT22;32291;52.010;4.446;2023-07-13T06:54:50;20.00;99.90
47521;DHT22;32291;52.010;4.446;2023-07-13T06:55:53;20.10;99.90
47521;DHT22;32291;52.010;4.446;2023-07-13T06:57:00;20.10;99.90
47521;DHT22;32291;52.010;4.446;2023-07-13T06:58:06;20.20;99.90
47521;DHT22;32291;52.010;4.446;2023-07-13T06:59:13;20.10;99.90
47521;DHT22;32291;52.010;4.446;2023-07-13T07:00:16;20.10;99.90